createdAt,value
2022-08-20T00:00:19.111Z,205
2022-08-20T00:02:20.768Z,205
2022-08-20T00:04:22.289Z,205
2022-08-20T00:06:23.962Z,205
2022-08-20T00:08:25.689Z,205
2022-08-20T00:10:27.351Z,205
2022-08-20T00:12:28.556Z,205
2022-08-20T00:14:30.039Z,205
2022-08-20T00:18:33.205Z,205
2022-08-20T00:22:36.056Z,205
2022-08-20T00:24:37.816Z,205
2022-08-20T00:26:38.973Z,205
2022-08-20T00:28:40.790Z,205
2022-08-20T00:30:41.998Z,205
2022-08-20T00:32:43.018Z,205
2022-08-20T00:34:44.615Z,205
2022-08-20T00:36:45.598Z,205
2022-08-20T00:38:47.126Z,205
2022-08-20T00:40:48.973Z,205
2022-08-20T00:42:50.622Z,205
2022-08-20T00:44:51.850Z,205
2022-08-20T00:46:52.751Z,205
2022-08-20T00:50:55.164Z,205
2022-08-20T00:52:56.356Z,205
2022-08-20T00:54:57.294Z,205
2022-08-20T00:56:58.884Z,205
2022-08-20T00:59:00.138Z,205
2022-08-20T01:01:01.943Z,205
2022-08-20T01:05:04.634Z,205
2022-08-20T01:07:05.879Z,205
2022-08-20T01:09:07.472Z,205
2022-08-20T01:11:09.172Z,205
2022-08-20T01:13:10.124Z,205
2022-08-20T01:15:11.201Z,205
2022-08-20T01:19:29.337Z,205
2022-08-20T01:23:16.694Z,205
2022-08-20T01:25:17.947Z,205
2022-08-20T01:27:19.311Z,205
2022-08-20T01:29:20.574Z,205
2022-08-20T01:31:22.244Z,205
2022-08-20T01:33:23.198Z,205
2022-08-20T01:35:24.481Z,205
2022-08-20T01:37:25.724Z,205
2022-08-20T01:43:29.708Z,205
2022-08-20T01:45:30.871Z,205
2022-08-20T01:47:31.676Z,205
2022-08-20T01:49:33.418Z,205
2022-08-20T01:53:36.001Z,205
2022-08-20T01:55:37.565Z,205
2022-08-20T01:57:38.944Z,205
2022-08-20T01:59:40.405Z,205
2022-08-20T02:01:46.103Z,205
2022-08-20T02:03:44.703Z,205
2022-08-20T02:07:45.911Z,205
2022-08-20T02:09:46.973Z,205
2022-08-20T02:11:48.667Z,205
2022-08-20T02:15:52.426Z,205
2022-08-20T02:17:54.256Z,205
2022-08-20T02:19:55.409Z,205
2022-08-20T02:21:57.056Z,205
2022-08-20T02:23:57.861Z,205
2022-08-20T02:25:59.107Z,205
2022-08-20T02:28:00.220Z,205
2022-08-20T02:30:01.222Z,205
2022-08-20T02:32:23.782Z,205
2022-08-20T02:36:05.471Z,205
2022-08-20T02:38:06.983Z,205
2022-08-20T02:40:08.113Z,205
2022-08-20T02:42:08.952Z,205
2022-08-20T02:46:11.119Z,205
2022-08-20T02:48:12.119Z,205
2022-08-20T02:52:14.913Z,205
2022-08-20T02:54:16.441Z,205
2022-08-20T02:56:17.743Z,205
2022-08-20T02:58:19.153Z,205
2022-08-20T03:00:20.447Z,205
2022-08-20T03:02:21.602Z,205
2022-08-20T03:06:24.192Z,205
2022-08-20T03:08:25.536Z,205
2022-08-20T03:10:26.521Z,205
2022-08-20T03:12:28.202Z,205
2022-08-20T03:14:29.844Z,205
2022-08-20T03:16:31.066Z,205
2022-08-20T03:18:32.884Z,205
2022-08-20T03:20:34.561Z,205
2022-08-20T03:22:35.728Z,205
2022-08-20T03:24:37.273Z,205
2022-08-20T03:26:39.090Z,205
2022-08-20T03:30:41.355Z,205
2022-08-20T03:32:43.183Z,205
2022-08-20T03:34:44.829Z,205
2022-08-20T03:36:46.118Z,205
2022-08-20T03:38:47.910Z,205
2022-08-20T03:40:49.618Z,205
2022-08-20T03:44:58.774Z,205
2022-08-20T03:46:53.380Z,205
2022-08-20T03:50:56.330Z,205
2022-08-20T03:54:59.261Z,205
2022-08-20T03:57:00.754Z,205
2022-08-20T03:59:01.686Z,205
2022-08-20T04:01:03.526Z,205
2022-08-20T04:05:06.553Z,205
2022-08-20T04:07:07.777Z,205
2022-08-20T04:09:09.570Z,205
2022-08-20T04:11:10.416Z,205
2022-08-20T04:13:11.785Z,205
2022-08-20T04:17:14.358Z,205
2022-08-20T04:22:01.028Z,205
2022-08-20T04:24:01.923Z,205
2022-08-20T04:26:03.237Z,205
2022-08-20T04:30:06.686Z,205
2022-08-20T04:32:08.544Z,205
2022-08-20T04:34:10.017Z,205
2022-08-20T04:40:14.368Z,350
2022-08-20T04:42:15.526Z,350
2022-08-20T04:44:17.397Z,350
2022-08-20T04:46:19.183Z,350
2022-08-20T04:48:20.796Z,350
2022-08-20T04:50:22.071Z,350
2022-08-20T04:54:24.265Z,350
2022-08-20T04:56:25.608Z,350
2022-08-20T04:58:26.951Z,350
2022-08-20T05:00:27.904Z,350
2022-08-20T05:04:29.980Z,350
2022-08-20T05:06:30.883Z,350
2022-08-20T05:08:32.461Z,350
2022-08-20T05:10:33.531Z,350
2022-08-20T05:12:34.899Z,350
2022-08-20T05:14:36.689Z,350
2022-08-20T05:18:40.231Z,350
2022-08-20T05:20:42.103Z,350
2022-08-20T05:24:44.401Z,350
2022-08-20T05:26:45.597Z,350
2022-08-20T05:30:48.218Z,350
2022-08-20T05:32:49.602Z,350
2022-08-20T05:34:50.481Z,350
2022-08-20T05:36:52.286Z,350
2022-08-20T05:40:54.958Z,350
2022-08-20T05:42:56.014Z,350
2022-08-20T05:44:57.165Z,350
2022-08-20T05:46:58.557Z,350
2022-08-20T05:49:00.386Z,350
2022-08-20T05:51:01.416Z,350
2022-08-20T05:57:05.775Z,350
2022-08-20T05:59:06.998Z,350
2022-08-20T06:03:10.462Z,350
2022-08-20T06:07:12.837Z,350
2022-08-20T06:09:14.153Z,350
2022-08-20T06:11:15.139Z,350
2022-08-20T06:13:16.246Z,350
2022-08-20T06:15:17.831Z,350
2022-08-20T06:17:18.683Z,350
2022-08-20T06:19:25.094Z,350
2022-08-20T06:21:21.480Z,350
2022-08-20T06:25:23.984Z,350
2022-08-20T06:27:25.309Z,350
2022-08-20T06:29:26.375Z,350
2022-08-20T06:31:27.955Z,350
2022-08-20T06:35:30.791Z,350
2022-08-20T06:37:32.569Z,350
2022-08-20T06:41:36.354Z,350
2022-08-20T06:43:36.878Z,350
2022-08-20T06:45:38.117Z,350
2022-08-20T06:47:39.281Z,350
2022-08-20T06:49:40.819Z,350
2022-08-20T06:55:48.145Z,350
2022-08-20T06:57:46.657Z,350
2022-08-20T06:59:48.313Z,283
2022-08-20T07:01:49.646Z,225
2022-08-20T07:03:55.186Z,252
2022-08-20T07:05:52.060Z,258
2022-08-20T07:07:53.850Z,264
2022-08-20T07:09:55.150Z,264
2022-08-20T07:11:56.751Z,264
2022-08-20T07:18:01.290Z,275
2022-08-20T07:20:02.219Z,275
2022-08-20T07:22:04.774Z,267
2022-08-20T07:24:05.623Z,268
2022-08-20T07:28:08.464Z,203
2022-08-20T07:30:12.613Z,261
2022-08-20T07:32:11.090Z,233
2022-08-20T07:34:12.549Z,279
2022-08-20T07:36:13.699Z,279
2022-08-20T07:38:15.014Z,279
2022-08-20T07:40:15.958Z,278
2022-08-20T07:42:17.200Z,278
2022-08-20T07:44:18.371Z,342
2022-08-20T07:46:20.543Z,342
2022-08-20T07:48:28.097Z,235
2022-08-20T07:50:21.810Z,169
2022-08-20T07:54:23.415Z,266
2022-08-20T07:56:24.670Z,266
2022-08-20T07:58:27.613Z,247
2022-08-20T08:00:28.133Z,246
2022-08-20T08:02:29.515Z,246
2022-08-20T08:04:30.890Z,256
2022-08-20T08:06:32.066Z,256
2022-08-20T08:08:33.069Z,256
2022-08-20T08:12:35.411Z,204
2022-08-20T08:16:39.341Z,21
2022-08-20T08:18:40.725Z,299
2022-08-20T08:20:46.632Z,247
2022-08-20T08:22:43.177Z,258
2022-08-20T08:26:46.219Z,38
2022-08-20T08:30:49.384Z,266
2022-08-20T08:32:50.441Z,219
2022-08-20T08:34:51.292Z,219
2022-08-20T08:36:52.996Z,269
2022-08-20T08:38:54.564Z,265
2022-08-20T08:40:57.609Z,265
2022-08-20T08:42:58.202Z,266
2022-08-20T08:44:59.194Z,251
2022-08-20T08:47:00.748Z,226
2022-08-20T08:49:02.545Z,203
2022-08-20T08:51:03.499Z,305
2022-08-20T08:53:05.102Z,141
2022-08-20T08:59:08.880Z,260
2022-08-20T09:01:13.727Z,223
2022-08-20T09:05:12.607Z,13
2022-08-20T09:09:14.745Z,255
2022-08-20T09:11:15.666Z,255
2022-08-20T09:13:16.730Z,255
2022-08-20T09:15:18.161Z,230
2022-08-20T09:19:20.375Z,259
2022-08-20T09:21:21.367Z,259
2022-08-20T09:23:22.555Z,259
2022-08-20T09:25:24.181Z,259
2022-08-20T09:27:25.588Z,263
2022-08-20T09:29:26.874Z,263
2022-08-20T09:31:28.007Z,263
2022-08-20T09:33:29.611Z,243
2022-08-20T09:37:36.868Z,260
2022-08-20T09:39:34.118Z,270
2022-08-20T09:41:35.494Z,244
2022-08-20T09:45:38.706Z,261
2022-08-20T09:47:41.714Z,37
2022-08-20T09:49:41.407Z,308
2022-08-20T09:51:42.794Z,307
2022-08-20T09:53:43.941Z,307
2022-08-20T09:55:45.177Z,306
2022-08-20T09:59:49.046Z,290
2022-08-20T10:03:51.730Z,272
2022-08-20T10:07:54.316Z,272
2022-08-20T10:11:56.956Z,257
2022-08-20T10:13:58.703Z,200
2022-08-20T10:18:00.541Z,249
2022-08-20T10:20:02.071Z,212
2022-08-20T10:22:03.298Z,206
2022-08-20T10:26:06.116Z,209
2022-08-20T10:28:07.171Z,242
2022-08-20T10:30:08.238Z,229
2022-08-20T10:32:09.435Z,134
2022-08-20T10:34:10.503Z,202
2022-08-20T10:36:12.169Z,269
2022-08-20T10:40:14.997Z,226
2022-08-20T10:42:16.214Z,235
2022-08-20T10:46:19.226Z,236
2022-08-20T10:50:21.538Z,268
2022-08-20T10:52:23.223Z,230
2022-08-20T10:54:24.929Z,238
2022-08-20T10:56:26.713Z,249
2022-08-20T10:58:29.009Z,35
2022-08-20T11:00:28.602Z,264
2022-08-20T11:02:30.312Z,263
2022-08-20T11:04:31.515Z,182
2022-08-20T11:06:33.208Z,183
2022-08-20T11:07:16.898Z,183
2022-08-20T11:09:18.094Z,183
2022-08-20T11:11:19.121Z,183
2022-08-20T11:13:21.190Z,183
2022-08-20T11:17:23.495Z,183
2022-08-20T11:19:25.008Z,183
2022-08-20T11:21:26.021Z,183
2022-08-20T11:23:27.140Z,183
2022-08-20T11:25:28.813Z,183
2022-08-20T11:27:29.932Z,183
2022-08-20T11:29:33.973Z,183
2022-08-20T11:33:34.100Z,186
2022-08-20T11:35:48.812Z,186
2022-08-20T11:37:36.172Z,221
2022-08-20T11:39:41.652Z,214
2022-08-20T11:41:39.492Z,211
2022-08-20T11:43:40.807Z,211
2022-08-20T11:45:42.556Z,210
2022-08-20T11:47:43.492Z,210
2022-08-20T11:49:44.605Z,188
2022-08-20T11:51:49.286Z,192
2022-08-20T11:53:48.129Z,194
2022-08-20T11:55:49.530Z,194
2022-08-20T11:57:51.035Z,194
2022-08-20T11:59:52.400Z,194
2022-08-20T12:02:02.587Z,194
2022-08-20T12:03:54.750Z,194
2022-08-20T12:07:57.552Z,193
2022-08-20T12:09:58.881Z,194
2022-08-20T12:12:00.667Z,194
2022-08-20T12:16:04.083Z,193
2022-08-20T12:18:05.556Z,194
2022-08-20T12:20:06.707Z,194
2022-08-20T12:26:10.653Z,193
2022-08-20T12:28:11.646Z,193
2022-08-20T12:30:12.669Z,193
2022-08-20T12:32:13.683Z,193
2022-08-20T12:34:14.728Z,193
2022-08-20T12:36:16.301Z,193
2022-08-20T12:38:18.493Z,193
2022-08-20T12:40:24.577Z,193
2022-08-20T12:42:20.856Z,193
2022-08-20T12:44:22.140Z,193
2022-08-20T12:46:23.407Z,193
2022-08-20T12:48:25.139Z,193
2022-08-20T12:50:29.739Z,193
2022-08-20T12:52:27.586Z,195
2022-08-20T12:54:29.009Z,216
2022-08-20T12:58:31.374Z,227
2022-08-20T13:00:33.049Z,229
2022-08-20T13:04:36.244Z,236
2022-08-20T13:08:38.887Z,242
2022-08-20T13:10:40.438Z,242
2022-08-20T13:12:41.518Z,243
2022-08-20T13:14:42.638Z,242
2022-08-20T13:18:45.023Z,191
2022-08-20T13:20:46.554Z,191
2022-08-20T13:22:47.872Z,191
2022-08-20T13:24:49.489Z,227
2022-08-20T13:30:53.403Z,198
2022-08-20T13:32:54.689Z,238
2022-08-20T13:36:56.869Z,278
2022-08-20T13:38:58.588Z,278
2022-08-20T13:41:00.055Z,282
2022-08-20T13:43:04.711Z,234
2022-08-20T13:45:02.286Z,221
2022-08-20T13:47:03.829Z,251
2022-08-20T13:51:05.906Z,273
2022-08-20T13:53:07.253Z,194
2022-08-20T13:57:10.335Z,234
2022-08-20T14:01:13.026Z,245
2022-08-20T14:03:13.895Z,245
2022-08-20T14:07:16.416Z,243
2022-08-20T14:09:18.074Z,243
2022-08-20T14:11:19.633Z,244
2022-08-20T14:13:21.031Z,192
2022-08-20T14:15:22.624Z,223
2022-08-20T14:17:24.028Z,194
2022-08-20T14:19:25.545Z,196
2022-08-20T14:21:26.383Z,199
2022-08-20T14:23:27.869Z,207
2022-08-20T14:25:29.015Z,207
2022-08-20T14:27:31.324Z,207
2022-08-20T14:29:31.260Z,207
2022-08-20T14:31:32.683Z,207
2022-08-20T14:33:36.021Z,207
2022-08-20T14:35:34.824Z,207
2022-08-20T14:39:37.298Z,207
2022-08-20T14:41:38.551Z,269
2022-08-20T14:45:41.780Z,64
2022-08-20T14:49:44.019Z,267
2022-08-20T14:51:45.687Z,50
2022-08-20T14:53:47.457Z,269
2022-08-20T14:55:48.471Z,66
2022-08-20T14:59:51.220Z,174
2022-08-20T15:01:52.232Z,177
2022-08-20T15:03:53.169Z,229
2022-08-20T15:05:54.013Z,133
2022-08-20T15:07:55.315Z,133
2022-08-20T15:09:56.730Z,133
2022-08-20T15:11:57.662Z,133
2022-08-20T15:13:59.055Z,133
2022-08-20T15:16:00.397Z,133
2022-08-20T15:20:02.842Z,133
2022-08-20T15:22:04.533Z,133
2022-08-20T15:26:07.179Z,133
2022-08-20T15:28:07.970Z,133
2022-08-20T15:32:10.066Z,134
2022-08-20T15:34:17.509Z,134
2022-08-20T15:38:13.677Z,134
2022-08-20T15:40:15.956Z,134
2022-08-20T15:42:16.276Z,134
2022-08-20T15:44:17.821Z,134
2022-08-20T15:46:19.359Z,134
2022-08-20T15:50:21.466Z,134
2022-08-20T15:54:24.706Z,134
2022-08-20T15:56:25.882Z,134
2022-08-20T15:58:26.857Z,134
2022-08-20T16:00:27.761Z,134
2022-08-20T16:02:28.538Z,134
2022-08-20T16:04:29.484Z,135
2022-08-20T16:06:30.254Z,135
2022-08-20T16:08:31.509Z,137
2022-08-20T16:10:32.440Z,137
2022-08-20T16:12:33.800Z,137
2022-08-20T16:14:35.078Z,138
2022-08-20T16:16:36.529Z,138
2022-08-20T16:20:39.783Z,151
2022-08-20T16:22:40.850Z,160
2022-08-20T16:24:42.267Z,255
2022-08-20T16:26:43.115Z,255
2022-08-20T16:30:46.535Z,219
2022-08-20T16:32:47.769Z,220
2022-08-20T16:34:49.483Z,220
2022-08-20T16:36:58.841Z,219
2022-08-20T16:40:53.858Z,219
2022-08-20T16:42:55.396Z,219
2022-08-20T16:44:56.952Z,219
2022-08-20T16:46:58.477Z,219
2022-08-20T16:48:59.886Z,219
2022-08-20T16:51:01.166Z,219
2022-08-20T16:53:02.361Z,219
2022-08-20T16:55:03.232Z,246
2022-08-20T16:57:04.386Z,260
2022-08-20T16:59:05.418Z,198
2022-08-20T17:01:06.412Z,235
2022-08-20T17:03:07.657Z,235
2022-08-20T17:07:11.068Z,235
2022-08-20T17:09:11.590Z,235
2022-08-20T17:11:12.494Z,235
2022-08-20T17:13:14.106Z,235
2022-08-20T17:15:15.615Z,235
2022-08-20T17:19:17.800Z,235
2022-08-20T17:23:20.069Z,235
2022-08-20T17:25:21.063Z,235
2022-08-20T17:29:24.129Z,235
2022-08-20T17:33:26.754Z,235
2022-08-20T17:35:27.858Z,235
2022-08-20T17:39:30.804Z,235
2022-08-20T17:41:31.672Z,235
2022-08-20T17:43:33.192Z,235
2022-08-20T17:45:34.772Z,235
2022-08-20T17:49:37.019Z,235
2022-08-20T17:51:38.060Z,235
2022-08-20T17:54:32.521Z,235
2022-08-20T17:56:34.303Z,235
2022-08-20T18:00:37.294Z,235
2022-08-20T18:02:38.795Z,235
2022-08-20T18:06:41.730Z,235
2022-08-20T18:10:44.844Z,235
2022-08-20T18:12:46.179Z,235
2022-08-20T18:14:47.748Z,235
2022-08-20T18:16:48.803Z,235
2022-08-20T18:18:51.009Z,235
2022-08-20T18:20:51.374Z,235
2022-08-20T18:22:52.686Z,235
2022-08-20T18:28:56.847Z,120
2022-08-20T18:30:57.949Z,120
2022-08-20T18:32:59.104Z,120
2022-08-20T18:35:03.740Z,120
2022-08-20T18:39:02.891Z,120
2022-08-20T18:41:04.355Z,120
2022-08-20T18:43:05.773Z,120
2022-08-20T18:45:07.484Z,120
2022-08-20T18:49:10.287Z,120
2022-08-20T18:51:11.727Z,360
2022-08-20T18:53:12.750Z,360
2022-08-20T18:55:14.274Z,360
2022-08-20T18:57:15.831Z,360
2022-08-20T18:59:17.141Z,360
2022-08-20T19:01:19.066Z,360
2022-08-20T19:03:20.379Z,360
2022-08-20T19:05:22.081Z,360
2022-08-20T19:07:23.378Z,360
2022-08-20T19:09:25.199Z,360
2022-08-20T19:11:26.354Z,360
2022-08-20T19:13:28.047Z,360
2022-08-20T19:15:29.092Z,360
2022-08-20T19:17:31.093Z,360
2022-08-20T19:21:33.668Z,360
2022-08-20T19:23:34.663Z,360
2022-08-20T19:25:36.138Z,360
2022-08-20T19:27:37.924Z,360
2022-08-20T19:29:38.815Z,360
2022-08-20T19:31:40.074Z,360
2022-08-20T19:33:44.080Z,360
2022-08-20T19:37:44.442Z,360
2022-08-20T19:39:44.686Z,360
2022-08-20T19:41:46.210Z,360
2022-08-20T19:43:47.193Z,360
2022-08-20T19:45:48.368Z,360
2022-08-20T19:47:49.944Z,119
2022-08-20T19:49:51.049Z,119
2022-08-20T19:51:51.941Z,119
2022-08-20T19:53:53.639Z,119
2022-08-20T19:55:54.618Z,119
2022-08-20T19:57:55.557Z,119
2022-08-20T19:59:57.407Z,119
2022-08-20T20:01:58.993Z,119
2022-08-20T20:03:59.883Z,119
2022-08-20T20:06:00.933Z,119
2022-08-20T20:10:03.751Z,119
2022-08-20T20:12:04.841Z,119
2022-08-20T20:14:06.275Z,119
2022-08-20T20:16:07.666Z,119
2022-08-20T20:20:10.647Z,119
2022-08-20T20:22:19.050Z,119
2022-08-20T20:24:13.887Z,119
2022-08-20T20:26:14.884Z,119
2022-08-20T20:30:17.663Z,119
2022-08-20T20:32:18.743Z,119
2022-08-20T20:34:20.271Z,119
2022-08-20T20:36:21.588Z,119
2022-08-20T20:38:22.697Z,119
2022-08-20T20:40:25.300Z,119
2022-08-20T20:42:25.728Z,119
2022-08-20T20:44:27.289Z,119
2022-08-20T20:48:33.151Z,119
2022-08-20T20:52:33.138Z,120
2022-08-20T20:54:34.747Z,119
2022-08-20T20:56:35.731Z,120
2022-08-20T20:58:36.720Z,120
2022-08-20T21:02:39.098Z,120
2022-08-20T21:04:42.582Z,120
2022-08-20T21:08:43.573Z,119
2022-08-20T21:12:49.217Z,120
2022-08-20T21:14:47.895Z,120
2022-08-20T21:18:50.161Z,120
2022-08-20T21:20:51.659Z,120
2022-08-20T21:22:53.352Z,120
2022-08-20T21:24:54.510Z,120
2022-08-20T21:26:56.226Z,120
2022-08-20T21:28:57.076Z,120
2022-08-20T21:30:58.646Z,120
2022-08-20T21:33:00.128Z,120
2022-08-20T21:35:01.796Z,120
2022-08-20T21:37:02.776Z,120
2022-08-20T21:39:04.637Z,120
2022-08-20T21:41:06.417Z,120
2022-08-20T21:43:07.892Z,120
2022-08-20T21:45:09.242Z,120
2022-08-20T21:47:11.052Z,120
2022-08-20T21:51:13.011Z,120
2022-08-20T21:53:14.044Z,120
2022-08-20T21:55:15.346Z,120
2022-08-20T21:57:16.700Z,120
2022-08-20T22:01:19.615Z,120
2022-08-20T22:03:21.406Z,120
2022-08-20T22:05:23.108Z,120
2022-08-20T22:07:24.873Z,120
2022-08-20T22:11:28.151Z,120
2022-08-20T22:13:30.007Z,120
2022-08-20T22:15:31.729Z,120
2022-08-20T22:17:32.865Z,120
2022-08-20T22:21:35.572Z,120
2022-08-20T22:23:36.773Z,120
2022-08-20T22:25:38.397Z,120
2022-08-20T22:27:39.682Z,120
2022-08-20T22:33:43.670Z,120
2022-08-20T22:35:44.761Z,120
2022-08-20T22:37:45.635Z,120
2022-08-20T22:39:46.913Z,120
2022-08-20T22:43:55.623Z,120
2022-08-20T22:45:51.328Z,120
2022-08-20T22:49:54.956Z,120
2022-08-20T22:53:57.798Z,120
2022-08-20T22:55:59.039Z,120
2022-08-20T23:00:01.411Z,120
2022-08-20T23:04:04.534Z,120
2022-08-20T23:06:06.367Z,120
2022-08-20T23:10:09.251Z,120
2022-08-20T23:12:10.179Z,120
2022-08-20T23:14:11.926Z,120
2022-08-20T23:16:13.106Z,120
2022-08-20T23:22:16.207Z,120
2022-08-20T23:24:17.983Z,120
2022-08-20T23:26:19.471Z,120
2022-08-20T23:28:21.080Z,120
2022-08-20T23:32:24.093Z,120
2022-08-20T23:34:25.767Z,120
2022-08-20T23:36:27.132Z,120
2022-08-20T23:38:28.467Z,120
2022-08-20T23:42:30.809Z,120
2022-08-20T23:44:31.981Z,120
2022-08-20T23:46:32.930Z,120
2022-08-20T23:48:34.497Z,120
2022-08-20T23:50:35.931Z,120
2022-08-20T23:54:38.892Z,120
2022-08-20T23:58:42.010Z,120
